createdAt,value
2023-04-15T00:00:53.945Z,100.00
2023-04-15T00:02:00.382Z,100.00
2023-04-15T00:03:04.527Z,100.00
2023-04-15T00:04:07.727Z,100.00
2023-04-15T00:05:11.206Z,100.00
2023-04-15T00:06:14.790Z,100.00
2023-04-15T00:07:18.235Z,100.00
2023-04-15T00:08:21.195Z,100.00
2023-04-15T00:09:24.429Z,100.00
2023-04-15T00:10:27.850Z,100.00
2023-04-15T00:11:30.856Z,99.20
2023-04-15T00:12:34.001Z,97.97
2023-04-15T00:13:37.134Z,97.43
2023-04-15T00:14:40.339Z,96.56
2023-04-15T00:15:43.493Z,95.88
2023-04-15T00:16:46.768Z,95.32
2023-04-15T00:17:52.360Z,95.74
2023-04-15T00:18:55.340Z,96.31
2023-04-15T00:20:00.386Z,96.17
2023-04-15T00:21:05.328Z,96.00
2023-04-15T00:22:08.496Z,96.21
2023-04-15T00:23:12.099Z,96.82
2023-04-15T00:24:15.264Z,96.98
2023-04-15T00:25:18.358Z,96.67
2023-04-15T00:26:21.373Z,96.57
2023-04-15T00:27:24.535Z,97.10
2023-04-15T00:28:28.272Z,97.16
2023-04-15T00:29:32.283Z,97.01
2023-04-15T00:30:35.798Z,96.55
2023-04-15T00:31:38.885Z,96.72
2023-04-15T00:32:42.619Z,97.20
2023-04-15T00:33:45.805Z,97.46
2023-04-15T00:34:50.344Z,97.42
2023-04-15T00:35:53.950Z,96.84
2023-04-15T00:36:57.017Z,96.23
2023-04-15T00:38:00.183Z,95.57
2023-04-15T00:39:03.556Z,95.99
2023-04-15T00:40:08.158Z,96.66
2023-04-15T00:41:11.751Z,96.74
2023-04-15T00:42:15.507Z,96.88
2023-04-15T00:43:18.832Z,96.80
2023-04-15T00:44:22.015Z,96.54
2023-04-15T00:45:26.000Z,96.30
2023-04-15T00:46:31.479Z,96.44
2023-04-15T00:47:35.838Z,96.31
2023-04-15T00:48:46.176Z,96.30
2023-04-15T00:49:49.182Z,96.28
2023-04-15T00:50:52.240Z,96.92
2023-04-15T00:51:55.231Z,96.84
2023-04-15T00:52:58.227Z,97.24
2023-04-15T00:54:01.664Z,97.54
2023-04-15T00:55:05.685Z,97.59
2023-04-15T00:56:09.044Z,97.96
2023-04-15T00:57:12.056Z,98.34
2023-04-15T00:58:15.790Z,98.81
2023-04-15T00:59:19.152Z,98.56
2023-04-15T01:00:23.035Z,98.57
2023-04-15T01:01:27.596Z,98.57
2023-04-15T01:02:32.951Z,98.90
2023-04-15T01:03:36.635Z,98.84
2023-04-15T01:04:39.799Z,98.89
2023-04-15T01:05:42.679Z,98.71
2023-04-15T01:06:46.126Z,98.67
2023-04-15T01:07:49.241Z,98.69
2023-04-15T01:08:52.169Z,98.74
2023-04-15T01:09:55.923Z,99.20
2023-04-15T01:11:04.063Z,99.56
2023-04-15T01:12:08.785Z,99.28
2023-04-15T01:13:11.781Z,99.38
2023-04-15T01:14:14.786Z,99.43
2023-04-15T01:15:17.677Z,99.35
2023-04-15T01:16:21.011Z,98.69
2023-04-15T01:17:25.779Z,98.78
2023-04-15T01:18:29.698Z,98.52
2023-04-15T01:19:32.792Z,98.47
2023-04-15T01:20:36.664Z,98.16
2023-04-15T01:21:41.220Z,98.21
2023-04-15T01:22:45.501Z,98.67
2023-04-15T01:23:49.277Z,98.58
2023-04-15T01:25:02.497Z,98.51
2023-04-15T01:26:09.199Z,98.56
2023-04-15T01:27:12.337Z,99.08
2023-04-15T01:28:15.378Z,98.96
2023-04-15T01:29:18.957Z,98.33
2023-04-15T01:30:22.019Z,98.53
2023-04-15T01:31:24.838Z,98.17
2023-04-15T01:32:27.846Z,98.49
2023-04-15T01:33:30.910Z,98.39
2023-04-15T01:34:35.734Z,98.47
2023-04-15T01:35:39.213Z,98.67
2023-04-15T01:36:42.268Z,98.63
2023-04-15T01:37:45.677Z,98.67
2023-04-15T01:38:48.960Z,98.62
2023-04-15T01:39:52.631Z,98.85
2023-04-15T01:40:55.736Z,99.01
2023-04-15T01:41:59.005Z,98.60
2023-04-15T01:43:02.898Z,98.63
2023-04-15T01:44:07.434Z,98.48
2023-04-15T01:45:10.949Z,98.55
2023-04-15T01:46:14.097Z,97.84
2023-04-15T01:47:17.926Z,97.56
2023-04-15T01:48:21.476Z,97.66
2023-04-15T01:49:24.503Z,97.69
2023-04-15T01:50:28.601Z,97.54
2023-04-15T01:51:32.300Z,97.50
2023-04-15T01:52:35.291Z,97.53
2023-04-15T01:53:38.369Z,98.00
2023-04-15T01:54:41.384Z,98.23
2023-04-15T01:55:44.557Z,98.30
2023-04-15T01:56:47.841Z,98.43
2023-04-15T01:57:51.198Z,98.02
2023-04-15T01:58:54.347Z,97.92
2023-04-15T01:59:57.362Z,97.85
2023-04-15T02:01:00.862Z,98.34
2023-04-15T02:02:04.776Z,97.78
2023-04-15T02:03:07.971Z,97.48
2023-04-15T02:04:16.945Z,97.99
2023-04-15T02:05:20.065Z,98.39
2023-04-15T02:06:23.085Z,98.73
2023-04-15T02:07:26.588Z,99.20
2023-04-15T02:08:30.048Z,99.10
2023-04-15T02:09:33.350Z,98.81
2023-04-15T02:10:36.357Z,98.81
2023-04-15T02:11:39.489Z,98.75
2023-04-15T02:12:42.843Z,98.54
2023-04-15T02:13:45.812Z,98.73
2023-04-15T02:14:48.879Z,98.60
2023-04-15T02:15:52.966Z,98.33
2023-04-15T02:16:56.888Z,97.70
2023-04-15T02:18:01.392Z,97.68
2023-04-15T02:19:04.735Z,97.42
2023-04-15T02:20:09.128Z,97.92
2023-04-15T02:21:12.087Z,98.15
2023-04-15T02:22:19.028Z,98.52
2023-04-15T02:23:22.180Z,98.55
2023-04-15T02:24:25.171Z,97.87
2023-04-15T02:25:28.186Z,98.21
2023-04-15T02:26:33.349Z,98.68
2023-04-15T02:27:37.169Z,99.04
2023-04-15T02:28:40.372Z,99.19
2023-04-15T02:29:44.533Z,99.17
2023-04-15T02:30:51.463Z,99.01
2023-04-15T02:31:54.627Z,98.98
2023-04-15T02:32:57.531Z,98.55
2023-04-15T02:34:00.731Z,98.15
2023-04-15T02:35:09.144Z,98.35
2023-04-15T02:36:12.727Z,98.69
2023-04-15T02:37:16.403Z,98.54
2023-04-15T02:38:19.385Z,98.93
2023-04-15T02:39:22.387Z,98.60
2023-04-15T02:40:25.452Z,98.78
2023-04-15T02:41:30.320Z,98.64
2023-04-15T02:42:33.374Z,98.54
2023-04-15T02:43:36.759Z,98.58
2023-04-15T02:44:39.978Z,99.09
2023-04-15T02:45:43.892Z,99.28
2023-04-15T02:46:51.300Z,99.55
2023-04-15T02:47:54.816Z,99.29
2023-04-15T02:49:00.354Z,99.18
2023-04-15T02:50:04.557Z,98.72
2023-04-15T02:51:20.132Z,98.48
2023-04-15T02:52:23.009Z,98.93
2023-04-15T02:53:27.233Z,99.12
2023-04-15T02:54:30.220Z,99.52
2023-04-15T02:55:33.395Z,99.63
2023-04-15T02:56:36.327Z,98.67
2023-04-15T02:57:41.045Z,98.79
2023-04-15T02:58:50.940Z,99.02
2023-04-15T02:59:54.098Z,98.85
2023-04-15T03:00:57.036Z,99.02
2023-04-15T03:02:02.699Z,99.35
2023-04-15T03:03:07.007Z,99.12
2023-04-15T03:04:10.429Z,99.25
2023-04-15T03:05:15.143Z,99.62
2023-04-15T03:06:18.196Z,99.88
2023-04-15T03:07:21.401Z,100.00
2023-04-15T03:08:24.467Z,100.00
2023-04-15T03:09:27.681Z,99.84
2023-04-15T03:10:30.727Z,99.42
2023-04-15T03:11:36.025Z,99.52
2023-04-15T03:12:39.766Z,99.24
2023-04-15T03:13:43.559Z,99.16
2023-04-15T03:14:46.393Z,99.16
2023-04-15T03:15:49.368Z,99.25
2023-04-15T03:16:52.538Z,99.65
2023-04-15T03:17:56.738Z,100.00
2023-04-15T03:18:59.873Z,100.00
2023-04-15T03:20:05.587Z,100.00
2023-04-15T03:21:08.451Z,100.00
2023-04-15T03:22:11.775Z,99.99
2023-04-15T03:23:14.843Z,100.00
2023-04-15T03:24:18.237Z,100.00
2023-04-15T03:25:21.882Z,100.00
2023-04-15T03:26:27.374Z,100.00
2023-04-15T03:27:36.238Z,100.00
2023-04-15T03:28:39.655Z,100.00
2023-04-15T03:29:42.631Z,100.00
2023-04-15T03:30:45.927Z,100.00
2023-04-15T03:31:48.994Z,100.00
2023-04-15T03:32:52.033Z,100.00
2023-04-15T03:33:55.092Z,100.00
2023-04-15T03:34:58.014Z,100.00
2023-04-15T03:36:01.198Z,100.00
2023-04-15T03:37:04.182Z,100.00
2023-04-15T03:38:07.364Z,100.00
2023-04-15T03:39:10.547Z,100.00
2023-04-15T03:40:13.644Z,100.00
2023-04-15T03:41:16.533Z,100.00
2023-04-15T03:42:19.549Z,100.00
2023-04-15T03:43:22.709Z,100.00
2023-04-15T03:44:27.171Z,100.00
2023-04-15T03:45:30.246Z,100.00
2023-04-15T03:46:33.571Z,100.00
2023-04-15T03:47:36.891Z,100.00
2023-04-15T03:48:39.887Z,100.00
2023-04-15T03:49:42.740Z,100.00
2023-04-15T03:50:46.376Z,100.00
2023-04-15T03:51:49.523Z,100.00
2023-04-15T03:52:52.436Z,100.00
2023-04-15T03:53:55.388Z,100.00
2023-04-15T03:54:58.366Z,100.00
2023-04-15T03:56:01.951Z,100.00
2023-04-15T03:57:04.944Z,100.00
2023-04-15T03:58:08.053Z,100.00
2023-04-15T03:59:11.715Z,100.00
2023-04-15T04:00:14.793Z,100.00
2023-04-15T04:01:17.712Z,100.00
2023-04-15T04:02:20.726Z,100.00
2023-04-15T04:03:24.095Z,100.00
2023-04-15T04:04:27.292Z,100.00
2023-04-15T04:05:31.047Z,100.00
2023-04-15T04:06:34.212Z,100.00
2023-04-15T04:07:37.270Z,100.00
2023-04-15T04:08:40.251Z,100.00
2023-04-15T04:09:43.232Z,100.00
2023-04-15T04:10:46.276Z,100.00
2023-04-15T04:11:49.112Z,100.00
2023-04-15T04:12:52.257Z,100.00
2023-04-15T04:13:55.292Z,100.00
2023-04-15T04:14:58.302Z,100.00
2023-04-15T04:16:02.148Z,100.00
2023-04-15T04:17:05.400Z,100.00
2023-04-15T04:18:08.543Z,100.00
2023-04-15T04:19:11.586Z,100.00
2023-04-15T04:20:14.466Z,100.00
2023-04-15T04:21:17.577Z,100.00
2023-04-15T04:22:24.381Z,100.00
2023-04-15T04:23:27.336Z,100.00
2023-04-15T04:24:30.301Z,100.00
2023-04-15T04:25:33.397Z,100.00
2023-04-15T04:26:36.741Z,100.00
2023-04-15T04:27:40.098Z,100.00
2023-04-15T04:28:43.499Z,100.00
2023-04-15T04:29:48.125Z,100.00
2023-04-15T04:30:51.376Z,100.00
2023-04-15T04:31:54.444Z,100.00
2023-04-15T04:32:57.805Z,100.00
2023-04-15T04:34:01.311Z,100.00
2023-04-15T04:35:05.153Z,100.00
2023-04-15T04:36:08.363Z,100.00
2023-04-15T04:37:11.705Z,100.00
2023-04-15T04:38:14.656Z,100.00
2023-04-15T04:39:17.750Z,100.00
2023-04-15T04:40:20.973Z,100.00
2023-04-15T04:41:23.982Z,100.00
2023-04-15T04:42:27.299Z,100.00
2023-04-15T04:43:30.228Z,100.00
2023-04-15T04:44:33.460Z,100.00
2023-04-15T04:45:36.599Z,100.00
2023-04-15T04:46:39.570Z,100.00
2023-04-15T04:47:42.791Z,100.00
2023-04-15T04:48:47.159Z,100.00
2023-04-15T04:49:50.250Z,100.00
2023-04-15T04:50:53.556Z,100.00
2023-04-15T04:51:57.797Z,100.00
2023-04-15T04:53:01.764Z,100.00
2023-04-15T04:54:04.733Z,100.00
2023-04-15T04:55:08.878Z,100.00
2023-04-15T04:56:11.867Z,100.00
2023-04-15T04:57:14.769Z,100.00
2023-04-15T04:58:17.807Z,100.00
2023-04-15T04:59:20.845Z,100.00
2023-04-15T05:00:23.842Z,100.00
2023-04-15T05:01:27.811Z,100.00
2023-04-15T05:02:31.318Z,100.00
2023-04-15T05:03:34.647Z,100.00
2023-04-15T05:04:37.666Z,100.00
2023-04-15T05:05:41.368Z,100.00
2023-04-15T05:06:44.261Z,100.00
2023-04-15T05:07:47.584Z,100.00
2023-04-15T05:08:50.710Z,100.00
2023-04-15T05:09:54.026Z,100.00
2023-04-15T05:10:57.004Z,100.00
2023-04-15T05:12:00.152Z,100.00
2023-04-15T05:13:03.160Z,100.00
2023-04-15T05:14:06.324Z,100.00
2023-04-15T05:15:09.673Z,100.00
2023-04-15T05:16:12.638Z,100.00
2023-04-15T05:17:15.557Z,100.00
2023-04-15T05:18:18.528Z,100.00
2023-04-15T05:19:21.624Z,100.00
2023-04-15T05:20:24.821Z,100.00
2023-04-15T05:21:28.011Z,100.00
2023-04-15T05:22:31.268Z,100.00
2023-04-15T05:23:34.392Z,100.00
2023-04-15T05:24:37.545Z,100.00
2023-04-15T05:25:40.834Z,100.00
2023-04-15T05:26:43.995Z,100.00
2023-04-15T05:27:47.032Z,100.00
2023-04-15T05:28:50.076Z,100.00
2023-04-15T05:29:53.078Z,100.00
2023-04-15T05:30:56.548Z,100.00
2023-04-15T05:31:59.614Z,100.00
2023-04-15T05:33:02.755Z,100.00
2023-04-15T05:34:05.773Z,100.00
2023-04-15T05:35:08.883Z,100.00
2023-04-15T05:36:12.373Z,100.00
2023-04-15T05:37:15.846Z,100.00
2023-04-15T05:38:19.023Z,100.00
2023-04-15T05:39:22.271Z,100.00
2023-04-15T05:40:25.350Z,100.00
2023-04-15T05:41:28.206Z,100.00
2023-04-15T05:42:31.199Z,100.00
2023-04-15T05:43:34.096Z,100.00
2023-04-15T05:44:37.119Z,100.00
2023-04-15T05:45:40.137Z,100.00
2023-04-15T05:46:43.670Z,100.00
2023-04-15T05:47:47.171Z,100.00
2023-04-15T05:48:50.520Z,100.00
2023-04-15T05:49:53.606Z,100.00
2023-04-15T05:50:56.857Z,100.00
2023-04-15T05:51:59.853Z,100.00
2023-04-15T05:53:02.857Z,100.00
2023-04-15T05:54:06.076Z,100.00
2023-04-15T05:55:09.725Z,100.00
2023-04-15T05:56:12.919Z,100.00
2023-04-15T05:57:15.922Z,100.00
2023-04-15T05:58:19.046Z,100.00
2023-04-15T05:59:22.145Z,100.00
2023-04-15T06:00:25.386Z,100.00
2023-04-15T06:01:28.464Z,100.00
2023-04-15T06:02:31.835Z,100.00
2023-04-15T06:03:35.072Z,100.00
2023-04-15T06:04:38.224Z,100.00
2023-04-15T06:05:41.437Z,100.00
2023-04-15T06:06:45.081Z,100.00
2023-04-15T06:07:48.713Z,100.00
2023-04-15T06:08:51.835Z,100.00
2023-04-15T06:09:55.012Z,100.00
2023-04-15T06:10:59.729Z,100.00
2023-04-15T06:12:03.308Z,100.00
2023-04-15T06:13:07.245Z,100.00
2023-04-15T06:14:10.124Z,100.00
2023-04-15T06:15:13.168Z,100.00
2023-04-15T06:16:16.712Z,100.00
2023-04-15T06:17:20.083Z,100.00
2023-04-15T06:18:23.040Z,100.00
2023-04-15T06:19:26.482Z,100.00
2023-04-15T06:20:29.836Z,100.00
2023-04-15T06:21:33.240Z,99.64
2023-04-15T06:22:38.218Z,99.58
2023-04-15T06:23:44.051Z,99.62
2023-04-15T06:24:47.173Z,99.22
2023-04-15T06:25:50.078Z,99.29
2023-04-15T06:26:53.345Z,99.24
2023-04-15T06:27:56.467Z,98.23
2023-04-15T06:28:59.730Z,97.44
2023-04-15T06:30:03.023Z,97.65
2023-04-15T06:31:06.931Z,96.80
2023-04-15T06:32:10.252Z,96.27
2023-04-15T06:33:13.714Z,96.32
2023-04-15T06:34:16.685Z,96.62
2023-04-15T06:35:19.760Z,96.98
2023-04-15T06:36:22.722Z,97.12
2023-04-15T06:37:25.759Z,97.03
2023-04-15T06:38:28.930Z,96.56
2023-04-15T06:39:32.545Z,95.23
2023-04-15T06:40:35.748Z,95.19
2023-04-15T06:41:38.750Z,95.50
2023-04-15T06:42:42.242Z,95.86
2023-04-15T06:43:45.382Z,95.91
2023-04-15T06:44:48.313Z,95.49
2023-04-15T06:45:51.252Z,94.42
2023-04-15T06:46:54.190Z,93.97
2023-04-15T06:47:57.600Z,94.02
2023-04-15T06:49:01.113Z,94.02
2023-04-15T06:50:04.788Z,94.57
2023-04-15T06:51:07.965Z,94.92
2023-04-15T06:52:11.600Z,94.22
2023-04-15T06:53:15.302Z,93.22
2023-04-15T06:54:18.462Z,92.52
2023-04-15T06:55:21.781Z,92.84
2023-04-15T06:56:24.762Z,93.46
2023-04-15T06:57:28.991Z,93.76
2023-04-15T06:58:31.993Z,92.88
2023-04-15T06:59:35.777Z,92.37
2023-04-15T07:00:39.494Z,92.45
2023-04-15T07:01:42.509Z,91.68
2023-04-15T07:02:45.728Z,91.53
2023-04-15T07:03:48.922Z,91.43
2023-04-15T07:04:52.960Z,92.08
2023-04-15T07:05:55.921Z,91.99
2023-04-15T07:06:58.872Z,92.12
2023-04-15T07:08:02.202Z,92.51
2023-04-15T07:09:05.754Z,93.18
2023-04-15T07:10:09.472Z,92.13
2023-04-15T07:11:12.659Z,90.65
2023-04-15T07:12:15.791Z,91.35
2023-04-15T07:13:18.934Z,91.72
2023-04-15T07:14:22.380Z,91.86
2023-04-15T07:15:25.382Z,90.96
2023-04-15T07:16:29.888Z,90.72
2023-04-15T07:17:33.632Z,89.39
2023-04-15T07:18:36.965Z,88.88
2023-04-15T07:19:40.338Z,89.50
2023-04-15T07:20:43.897Z,89.82
2023-04-15T07:21:47.878Z,89.99
2023-04-15T07:22:51.351Z,90.17
2023-04-15T07:23:54.574Z,91.01
2023-04-15T07:24:57.854Z,91.29
2023-04-15T07:26:01.740Z,90.84
2023-04-15T07:27:04.880Z,90.16
2023-04-15T07:28:07.892Z,89.33
2023-04-15T07:29:11.102Z,88.32
2023-04-15T07:30:14.725Z,88.43
2023-04-15T07:31:18.056Z,87.02
2023-04-15T07:32:21.166Z,87.00
2023-04-15T07:33:24.574Z,87.14
2023-04-15T07:34:30.736Z,86.56
2023-04-15T07:35:34.613Z,85.58
2023-04-15T07:36:37.751Z,85.61
2023-04-15T07:37:40.704Z,85.44
2023-04-15T07:38:43.624Z,84.66
2023-04-15T07:40:08.006Z,83.89
2023-04-15T07:41:14.124Z,80.42
2023-04-15T07:42:17.475Z,79.91
2023-04-15T07:43:21.938Z,80.51
2023-04-15T07:44:27.020Z,81.50
2023-04-15T07:45:30.077Z,82.00
2023-04-15T07:46:33.490Z,82.69
2023-04-15T07:47:36.966Z,82.87
2023-04-15T07:48:39.953Z,82.09
2023-04-15T07:49:43.759Z,82.21
2023-04-15T07:50:46.981Z,82.80
2023-04-15T07:51:50.318Z,80.54
2023-04-15T07:52:53.373Z,79.22
2023-04-15T07:53:56.644Z,79.42
2023-04-15T07:54:59.660Z,79.74
2023-04-15T07:56:02.605Z,80.47
2023-04-15T07:57:05.613Z,79.44
2023-04-15T07:58:08.696Z,78.99
2023-04-15T07:59:11.873Z,79.78
2023-04-15T08:00:16.576Z,80.14
2023-04-15T08:01:19.609Z,80.39
2023-04-15T08:02:23.188Z,80.87
2023-04-15T08:03:26.493Z,81.15
2023-04-15T08:04:29.827Z,81.13
2023-04-15T08:05:33.457Z,81.61
2023-04-15T08:06:36.974Z,81.41
2023-04-15T08:07:40.297Z,80.67
2023-04-15T08:08:43.422Z,80.00
2023-04-15T08:09:47.236Z,78.98
2023-04-15T08:10:52.371Z,78.66
2023-04-15T08:11:56.828Z,79.04
2023-04-15T08:12:59.909Z,79.53
2023-04-15T08:14:05.199Z,80.61
2023-04-15T08:15:08.642Z,80.53
2023-04-15T08:16:23.774Z,80.09
2023-04-15T08:17:27.270Z,80.41
2023-04-15T08:18:30.603Z,80.71
2023-04-15T08:19:33.661Z,81.04
2023-04-15T08:20:37.332Z,81.18
2023-04-15T08:21:41.323Z,81.04
2023-04-15T08:22:44.269Z,80.51
2023-04-15T08:23:49.760Z,80.10
2023-04-15T08:24:52.784Z,79.32
2023-04-15T08:25:55.800Z,79.77
2023-04-15T08:27:00.174Z,80.08
2023-04-15T08:28:07.685Z,80.09
2023-04-15T08:29:10.745Z,80.31
2023-04-15T08:30:14.296Z,80.88
2023-04-15T08:31:18.678Z,81.35
2023-04-15T08:32:21.746Z,81.88
2023-04-15T08:33:24.675Z,82.01
2023-04-15T08:34:28.064Z,81.53
2023-04-15T08:35:31.942Z,82.08
2023-04-15T08:36:35.291Z,82.25
2023-04-15T08:37:38.452Z,81.74
2023-04-15T08:38:42.104Z,82.31
2023-04-15T08:39:46.434Z,82.53
2023-04-15T08:40:49.860Z,83.17
2023-04-15T08:42:02.068Z,82.68
2023-04-15T08:43:08.428Z,82.17
2023-04-15T08:44:11.706Z,81.19
2023-04-15T08:45:15.349Z,81.42
2023-04-15T08:46:18.785Z,81.99
2023-04-15T08:47:24.522Z,81.38
2023-04-15T08:48:32.884Z,79.04
2023-04-15T08:49:41.659Z,78.92
2023-04-15T08:50:45.686Z,78.72
2023-04-15T08:51:49.926Z,78.68
2023-04-15T08:52:56.192Z,77.10
2023-04-15T08:54:00.075Z,75.35
2023-04-15T08:55:03.925Z,76.21
2023-04-15T08:56:10.432Z,76.35
2023-04-15T08:57:14.508Z,76.04
2023-04-15T08:58:19.932Z,75.45
2023-04-15T08:59:22.989Z,75.19
2023-04-15T09:00:27.315Z,75.61
2023-04-15T09:01:30.468Z,75.86
2023-04-15T09:02:33.940Z,74.05
2023-04-15T09:03:37.819Z,73.82
2023-04-15T09:04:40.945Z,74.15
2023-04-15T09:05:44.735Z,75.26
2023-04-15T09:06:47.840Z,75.57
2023-04-15T09:07:53.789Z,75.94
2023-04-15T09:08:57.902Z,76.67
2023-04-15T09:10:01.933Z,76.40
2023-04-15T09:11:05.190Z,76.57
2023-04-15T09:12:09.180Z,76.89
2023-04-15T09:13:12.648Z,75.61
2023-04-15T09:14:15.540Z,75.12
2023-04-15T09:15:19.187Z,74.81
2023-04-15T09:16:22.325Z,75.79
2023-04-15T09:17:26.850Z,76.20
2023-04-15T09:18:35.858Z,76.06
2023-04-15T09:19:38.840Z,75.71
2023-04-15T09:20:43.004Z,75.92
2023-04-15T09:21:48.216Z,76.71
2023-04-15T09:22:52.652Z,77.36
2023-04-15T09:24:01.138Z,77.55
2023-04-15T09:25:04.999Z,77.56
2023-04-15T09:26:08.636Z,77.48
2023-04-15T09:27:11.865Z,78.90
2023-04-15T09:28:15.081Z,79.54
2023-04-15T09:29:18.928Z,79.10
2023-04-15T09:30:22.078Z,76.07
2023-04-15T09:31:31.602Z,75.03
2023-04-15T09:32:35.126Z,72.91
2023-04-15T09:33:59.164Z,72.02
2023-04-15T09:35:12.842Z,72.00
2023-04-15T09:36:15.875Z,71.81
2023-04-15T09:37:31.523Z,72.78
2023-04-15T09:38:36.400Z,71.16
2023-04-15T09:39:52.425Z,73.45
2023-04-15T09:40:55.751Z,72.83
2023-04-15T09:42:07.754Z,72.98
2023-04-15T09:43:14.659Z,73.41
2023-04-15T09:44:27.684Z,75.13
2023-04-15T09:45:31.467Z,75.56
2023-04-15T09:46:44.563Z,75.87
2023-04-15T09:47:48.056Z,76.87
2023-04-15T09:49:09.012Z,76.32
2023-04-15T09:50:12.885Z,76.20
2023-04-15T09:51:16.426Z,76.59
2023-04-15T09:52:19.374Z,77.43
2023-04-15T09:53:23.649Z,74.11
2023-04-15T09:54:34.817Z,73.07
2023-04-15T09:55:37.948Z,72.33
2023-04-15T09:56:43.700Z,72.79
2023-04-15T09:57:47.680Z,72.06
2023-04-15T09:58:57.609Z,72.10
2023-04-15T10:00:00.747Z,73.18
2023-04-15T10:01:05.397Z,73.97
2023-04-15T10:02:08.734Z,73.53
2023-04-15T10:03:12.877Z,74.14
2023-04-15T10:04:16.744Z,74.03
2023-04-15T10:05:20.113Z,73.87
2023-04-15T10:06:24.320Z,74.36
2023-04-15T10:07:27.753Z,75.94
2023-04-15T10:08:33.345Z,77.24
2023-04-15T10:09:39.872Z,77.11
2023-04-15T10:10:42.989Z,76.93
2023-04-15T10:11:49.855Z,77.94
2023-04-15T10:12:54.919Z,78.48
2023-04-15T10:13:58.819Z,79.29
2023-04-15T10:15:06.218Z,79.09
2023-04-15T10:16:17.071Z,78.97
2023-04-15T10:17:22.905Z,77.69
2023-04-15T10:18:28.259Z,78.01
2023-04-15T10:19:33.843Z,76.50
2023-04-15T10:20:39.263Z,76.41
2023-04-15T10:21:42.754Z,75.50
2023-04-15T10:22:47.191Z,75.52
2023-04-15T10:23:51.041Z,73.59
2023-04-15T10:24:54.907Z,72.49
2023-04-15T10:25:59.262Z,73.40
2023-04-15T10:27:05.661Z,72.90
2023-04-15T10:28:09.891Z,72.24
2023-04-15T10:29:14.386Z,71.28
2023-04-15T10:30:17.952Z,71.96
2023-04-15T10:31:22.037Z,72.10
2023-04-15T10:32:26.795Z,73.00
2023-04-15T10:33:30.932Z,74.03
2023-04-15T10:34:34.419Z,74.33
2023-04-15T10:35:38.120Z,74.15
2023-04-15T10:36:41.250Z,74.91
2023-04-15T10:37:44.435Z,74.67
2023-04-15T10:38:47.708Z,74.63
2023-04-15T10:39:51.420Z,75.21
2023-04-15T10:40:54.489Z,76.79
2023-04-15T10:42:17.756Z,78.04
2023-04-15T10:43:28.774Z,77.60
2023-04-15T10:44:31.960Z,77.75
2023-04-15T10:45:37.181Z,77.98
2023-04-15T10:46:45.422Z,78.60
2023-04-15T10:47:55.420Z,79.34
2023-04-15T10:48:58.679Z,79.66
2023-04-15T10:50:02.798Z,79.34
2023-04-15T10:51:06.004Z,79.96
2023-04-15T10:52:09.182Z,80.00
2023-04-15T10:53:12.429Z,78.94
2023-04-15T10:54:17.892Z,78.70
2023-04-15T10:55:32.615Z,79.14
2023-04-15T10:56:35.689Z,79.37
2023-04-15T10:57:40.666Z,78.94
2023-04-15T10:58:44.427Z,79.00
2023-04-15T10:59:59.545Z,78.40
2023-04-15T11:01:04.791Z,78.84
2023-04-15T11:02:08.447Z,78.70
2023-04-15T11:03:12.489Z,79.26
2023-04-15T11:04:15.717Z,79.37
2023-04-15T11:05:21.014Z,79.41
2023-04-15T11:06:45.420Z,79.62
2023-04-15T11:07:51.206Z,80.07
2023-04-15T11:09:06.313Z,80.52
2023-04-15T11:10:18.735Z,81.56
2023-04-15T11:11:21.907Z,82.47
2023-04-15T11:12:36.006Z,82.11
2023-04-15T11:13:48.819Z,81.79
2023-04-15T11:14:51.848Z,82.02
2023-04-15T11:15:58.675Z,83.44
2023-04-15T11:17:01.942Z,83.63
2023-04-15T11:18:21.255Z,84.15
2023-04-15T11:19:24.205Z,83.67
2023-04-15T11:20:27.548Z,82.62
2023-04-15T11:21:30.954Z,82.57
2023-04-15T11:22:34.313Z,81.85
2023-04-15T11:23:47.060Z,81.08
2023-04-15T11:24:50.866Z,80.67
2023-04-15T11:25:56.696Z,80.25
2023-04-15T11:27:00.158Z,80.38
2023-04-15T11:28:03.996Z,80.63
2023-04-15T11:29:07.212Z,79.20
2023-04-15T11:30:24.493Z,79.83
2023-04-15T11:31:28.924Z,79.52
2023-04-15T11:32:32.353Z,79.13
2023-04-15T11:33:35.446Z,79.49
2023-04-15T11:34:38.558Z,79.56
2023-04-15T11:35:42.619Z,79.50
2023-04-15T11:36:45.706Z,80.00
2023-04-15T11:37:52.837Z,80.47
2023-04-15T11:38:59.358Z,79.67
2023-04-15T11:40:03.888Z,78.97
2023-04-15T11:41:07.087Z,78.02
2023-04-15T11:42:22.567Z,78.71
2023-04-15T11:43:25.616Z,79.26
2023-04-15T11:44:28.507Z,80.00
2023-04-15T11:45:31.859Z,78.95
2023-04-15T11:46:34.994Z,77.75
2023-04-15T11:47:39.308Z,77.63
2023-04-15T11:48:45.108Z,77.10
2023-04-15T11:49:50.805Z,76.49
2023-04-15T11:50:59.472Z,76.48
2023-04-15T11:52:02.649Z,76.73
2023-04-15T11:53:08.567Z,76.31
2023-04-15T11:54:19.737Z,77.79
2023-04-15T11:55:24.438Z,78.08
2023-04-15T11:56:27.871Z,78.74
2023-04-15T11:57:36.011Z,79.01
2023-04-15T11:58:39.888Z,78.72
2023-04-15T11:59:45.859Z,78.66
2023-04-15T12:00:59.076Z,78.88
2023-04-15T12:02:13.715Z,78.99
2023-04-15T12:03:22.996Z,79.73
2023-04-15T12:04:26.555Z,80.07
2023-04-15T12:05:29.617Z,80.80
2023-04-15T12:06:39.144Z,80.86
2023-04-15T12:08:01.364Z,80.95
2023-04-15T12:09:14.225Z,81.08
2023-04-15T12:10:18.180Z,80.07
2023-04-15T12:11:31.529Z,79.81
2023-04-15T12:12:34.647Z,80.08
2023-04-15T12:13:37.517Z,79.74
2023-04-15T12:14:40.675Z,78.64
2023-04-15T12:15:44.020Z,78.73
2023-04-15T12:16:54.153Z,78.74
2023-04-15T12:17:57.287Z,78.22
2023-04-15T12:19:01.053Z,77.04
2023-04-15T12:20:04.447Z,76.56
2023-04-15T12:21:11.330Z,76.80
2023-04-15T12:22:16.276Z,76.41
2023-04-15T12:23:22.383Z,75.93
2023-04-15T12:24:25.214Z,75.28
2023-04-15T12:25:40.177Z,74.93
2023-04-15T12:26:49.110Z,75.20
2023-04-15T12:27:53.705Z,75.14
2023-04-15T12:29:01.826Z,75.50
2023-04-15T12:30:06.368Z,75.80
2023-04-15T12:31:11.372Z,75.51
2023-04-15T12:32:16.897Z,76.51
2023-04-15T12:33:20.014Z,77.90
2023-04-15T12:34:36.743Z,78.47
2023-04-15T12:35:39.709Z,78.29
2023-04-15T12:36:43.800Z,78.35
2023-04-15T12:37:46.796Z,77.59
2023-04-15T12:38:49.842Z,77.84
2023-04-15T12:39:54.270Z,77.43
2023-04-15T12:40:57.275Z,75.71
2023-04-15T12:42:00.707Z,74.94
2023-04-15T12:43:03.752Z,75.10
2023-04-15T12:44:06.859Z,75.94
2023-04-15T12:45:09.939Z,75.51
2023-04-15T12:46:13.795Z,75.09
2023-04-15T12:47:18.264Z,75.33
2023-04-15T12:48:21.592Z,76.09
2023-04-15T12:49:25.256Z,75.14
2023-04-15T12:50:28.332Z,74.41
2023-04-15T12:51:32.253Z,73.91
2023-04-15T12:52:35.089Z,73.80
2023-04-15T12:53:38.201Z,72.66
2023-04-15T12:54:41.122Z,71.88
2023-04-15T12:55:44.253Z,70.44
2023-04-15T12:56:49.273Z,71.61
2023-04-15T12:57:54.274Z,71.58
2023-04-15T12:58:57.679Z,72.32
2023-04-15T13:00:01.020Z,72.21
2023-04-15T13:01:04.039Z,72.67
2023-04-15T13:02:08.405Z,71.68
2023-04-15T13:03:11.736Z,71.57
2023-04-15T13:04:17.653Z,72.22
2023-04-15T13:05:21.030Z,73.45
2023-04-15T13:06:25.187Z,73.90
2023-04-15T13:07:28.438Z,73.13
2023-04-15T13:08:31.997Z,73.31
2023-04-15T13:09:38.098Z,73.84
2023-04-15T13:10:42.728Z,73.06
2023-04-15T13:11:45.693Z,73.08
2023-04-15T13:12:53.921Z,73.87
2023-04-15T13:14:00.916Z,73.42
2023-04-15T13:15:05.737Z,73.42
2023-04-15T13:16:10.086Z,73.77
2023-04-15T13:17:13.390Z,73.15
2023-04-15T13:18:16.409Z,72.90
2023-04-15T13:19:19.555Z,73.23
2023-04-15T13:20:22.571Z,73.93
2023-04-15T13:21:25.734Z,74.30
2023-04-15T13:22:28.796Z,74.06
2023-04-15T13:23:32.128Z,74.72
2023-04-15T13:24:35.111Z,74.59
2023-04-15T13:25:38.316Z,74.31
2023-04-15T13:26:41.259Z,73.97
2023-04-15T13:27:44.720Z,73.39
2023-04-15T13:28:47.878Z,73.58
2023-04-15T13:29:50.861Z,74.18
2023-04-15T13:30:54.095Z,74.99
2023-04-15T13:31:57.271Z,75.79
2023-04-15T13:33:00.427Z,75.50
2023-04-15T13:34:03.897Z,75.14
2023-04-15T13:35:07.141Z,75.04
2023-04-15T13:36:10.178Z,75.33
2023-04-15T13:37:13.161Z,75.15
2023-04-15T13:38:19.017Z,75.24
2023-04-15T13:39:22.152Z,75.61
2023-04-15T13:40:25.653Z,75.70
2023-04-15T13:41:30.341Z,75.72
2023-04-15T13:42:33.756Z,75.37